createdAt,value
2022-09-14T00:01:03.087Z,0.60
2022-09-14T00:03:48.006Z,0.70
2022-09-14T00:06:23.568Z,0.80
2022-09-14T00:09:02.696Z,0.82
2022-09-14T00:11:39.631Z,0.68
2022-09-14T00:14:16.485Z,0.70
2022-09-14T00:16:50.942Z,0.73
2022-09-14T00:19:27.601Z,0.90
2022-09-14T00:22:05.432Z,0.90
2022-09-14T00:24:41.727Z,0.90
2022-09-14T00:27:16.474Z,0.70
2022-09-14T00:29:52.428Z,1.67
2022-09-14T00:32:29.321Z,0.80
2022-09-14T00:35:03.905Z,0.90
2022-09-14T00:37:38.375Z,1.02
2022-09-14T00:40:16.051Z,0.80
2022-09-14T00:42:50.849Z,0.80
2022-09-14T00:45:29.742Z,0.70
2022-09-14T00:48:05.016Z,0.90
2022-09-14T00:50:49.414Z,0.85
2022-09-14T00:53:25.365Z,0.80
2022-09-14T00:56:02.459Z,0.68
2022-09-14T00:58:37.879Z,0.50
2022-09-14T01:01:14.945Z,0.57
2022-09-14T01:03:50.864Z,0.40
2022-09-14T01:06:38.092Z,0.60
2022-09-14T01:09:27.078Z,0.50
2022-09-14T01:12:19.929Z,0.70
2022-09-14T01:15:02.975Z,0.80
2022-09-14T01:17:43.471Z,1.02
2022-09-14T01:20:27.727Z,0.70
2022-09-14T01:23:19.460Z,0.57
2022-09-14T01:26:28.230Z,0.60
2022-09-14T01:29:13.550Z,0.80
2022-09-14T01:31:56.586Z,0.70
2022-09-14T01:34:37.199Z,0.70
2022-09-14T01:37:20.381Z,0.60
2022-09-14T01:40:02.497Z,0.50
2022-09-14T01:42:39.159Z,0.60
2022-09-14T01:45:21.367Z,0.80
2022-09-14T01:48:00.452Z,0.75
2022-09-14T01:50:41.500Z,0.50
2022-09-14T01:53:20.421Z,0.75
2022-09-14T01:56:01.334Z,0.80
2022-09-14T01:58:40.084Z,0.65
2022-09-14T02:01:21.663Z,0.55
2022-09-14T02:04:02.290Z,0.50
2022-09-14T02:06:40.410Z,0.47
2022-09-14T02:09:18.930Z,0.60
2022-09-14T02:11:53.981Z,0.70
2022-09-14T02:14:30.531Z,0.40
2022-09-14T02:17:09.902Z,0.60
2022-09-14T02:19:49.327Z,0.55
2022-09-14T02:22:24.556Z,0.80
2022-09-14T02:25:00.091Z,0.50
2022-09-14T02:27:35.210Z,0.60
2022-09-14T02:30:12.813Z,0.60
2022-09-14T02:32:52.966Z,0.40
2022-09-14T02:35:33.839Z,0.40
2022-09-14T02:38:15.930Z,0.50
2022-09-14T02:40:57.948Z,0.70
2022-09-14T02:43:39.370Z,0.50
2022-09-14T02:46:22.608Z,0.60
2022-09-14T02:49:09.796Z,0.70
2022-09-14T02:51:50.954Z,0.65
2022-09-14T02:54:33.037Z,0.60
2022-09-14T02:57:08.500Z,0.70
2022-09-14T02:59:46.655Z,0.60
2022-09-14T03:02:22.112Z,0.70
2022-09-14T03:05:18.787Z,0.50
2022-09-14T03:07:55.868Z,0.60
2022-09-14T03:10:33.076Z,0.50
2022-09-14T03:13:08.659Z,0.50
2022-09-14T03:15:44.569Z,0.52
2022-09-14T03:18:20.398Z,0.40
2022-09-14T03:20:57.543Z,0.55
2022-09-14T03:23:33.059Z,0.60
2022-09-14T03:26:11.441Z,0.40
2022-09-14T03:28:47.267Z,0.40
2022-09-14T03:31:22.780Z,0.50
2022-09-14T03:33:59.896Z,0.50
2022-09-14T03:36:37.392Z,0.60
2022-09-14T03:39:12.499Z,0.50
2022-09-14T03:41:47.749Z,0.50
2022-09-14T03:44:23.439Z,0.50
2022-09-14T03:46:58.768Z,0.60
2022-09-14T03:49:35.308Z,0.50
2022-09-14T03:52:13.788Z,0.50
2022-09-14T03:54:48.952Z,0.40
2022-09-14T03:57:24.387Z,0.50
2022-09-14T04:00:03.925Z,0.60
2022-09-14T04:02:47.123Z,0.45
2022-09-14T04:05:22.337Z,0.45
2022-09-14T04:08:00.050Z,0.45
2022-09-14T04:10:35.337Z,0.45
2022-09-14T04:13:12.031Z,0.40
2022-09-14T04:15:47.554Z,0.50
2022-09-14T04:18:22.870Z,0.40
2022-09-14T04:21:07.963Z,0.45
2022-09-14T04:24:14.178Z,0.40
2022-09-14T04:26:45.370Z,0.40
2022-09-14T04:29:20.653Z,0.68
2022-09-14T04:31:55.130Z,0.50
2022-09-14T04:34:30.129Z,0.50
2022-09-14T04:37:05.485Z,0.47
2022-09-14T04:39:45.529Z,0.30
2022-09-14T04:42:19.965Z,0.40
2022-09-14T04:44:55.432Z,0.40
2022-09-14T04:47:32.736Z,0.50
2022-09-14T04:50:08.191Z,0.43
2022-09-14T04:52:43.537Z,0.40
2022-09-14T04:55:20.631Z,0.50
2022-09-14T04:57:56.030Z,0.50
2022-09-14T05:00:31.114Z,0.52
2022-09-14T05:03:06.751Z,0.50
2022-09-14T05:05:44.787Z,0.40
2022-09-14T05:08:40.596Z,0.52
2022-09-14T05:11:19.035Z,0.40
2022-09-14T05:13:54.751Z,0.40
2022-09-14T05:16:31.583Z,0.50
2022-09-14T05:19:08.395Z,0.40
2022-09-14T05:21:43.752Z,0.40
2022-09-14T05:24:19.923Z,0.50
2022-09-14T05:27:01.015Z,0.45
2022-09-14T05:29:37.885Z,0.50
2022-09-14T05:32:13.788Z,0.65
2022-09-14T05:34:49.160Z,0.50
2022-09-14T05:37:24.447Z,0.50
2022-09-14T05:39:59.818Z,0.38
2022-09-14T05:42:37.523Z,0.50
2022-09-14T05:45:13.441Z,0.40
2022-09-14T05:47:49.062Z,0.50
2022-09-14T05:50:24.856Z,0.45
2022-09-14T05:53:00.827Z,0.40
2022-09-14T05:55:38.698Z,0.40
2022-09-14T05:58:15.832Z,0.50
2022-09-14T06:00:51.875Z,0.60
2022-09-14T06:03:27.348Z,0.52
2022-09-14T06:06:04.291Z,0.55
2022-09-14T06:08:40.708Z,0.52
2022-09-14T06:11:18.584Z,0.50
2022-09-14T06:13:56.568Z,0.50
2022-09-14T06:16:32.827Z,0.50
2022-09-14T06:19:09.065Z,0.50
2022-09-14T06:21:44.733Z,0.57
2022-09-14T06:24:21.734Z,0.60
2022-09-14T06:26:57.449Z,0.50
2022-09-14T06:29:35.535Z,0.50
2022-09-14T06:32:12.167Z,0.70
2022-09-14T06:34:47.795Z,0.73
2022-09-14T06:37:23.114Z,0.50
2022-09-14T06:39:58.539Z,0.52
2022-09-14T06:42:36.082Z,0.57
2022-09-14T06:45:13.965Z,0.70
2022-09-14T06:47:49.092Z,0.68
2022-09-14T06:50:24.623Z,0.70
2022-09-14T06:53:00.555Z,0.63
2022-09-14T06:55:40.865Z,0.73
2022-09-14T06:58:16.060Z,0.50
2022-09-14T07:00:53.578Z,0.60
2022-09-14T07:03:29.377Z,0.70
2022-09-14T07:06:09.129Z,0.70
2022-09-14T07:09:06.288Z,0.60
2022-09-14T07:11:42.381Z,0.63
2022-09-14T07:14:18.319Z,0.50
2022-09-14T07:16:55.266Z,0.50
2022-09-14T07:19:30.544Z,0.70
2022-09-14T07:22:06.572Z,0.70
2022-09-14T07:24:41.900Z,0.90
2022-09-14T07:27:17.155Z,0.75
2022-09-14T07:29:52.891Z,0.65
2022-09-14T07:32:30.063Z,0.60
2022-09-14T07:35:05.634Z,0.70
2022-09-14T07:37:40.979Z,0.60
2022-09-14T07:40:16.660Z,0.90
2022-09-14T07:42:57.730Z,0.80
2022-09-14T07:45:33.275Z,0.70
2022-09-14T07:48:10.887Z,0.80
2022-09-14T07:50:46.262Z,0.90
2022-09-14T07:53:24.449Z,0.90
2022-09-14T07:56:02.242Z,1.63
2022-09-14T07:58:38.137Z,0.90
2022-09-14T08:01:15.365Z,0.75
2022-09-14T08:03:52.802Z,0.70
2022-09-14T08:06:29.810Z,0.90
2022-09-14T08:09:10.363Z,0.73
2022-09-14T08:11:45.138Z,0.80
2022-09-14T08:14:19.905Z,0.70
2022-09-14T08:16:55.225Z,1.00
2022-09-14T08:19:32.496Z,1.00
2022-09-14T08:22:06.759Z,0.77
2022-09-14T08:24:42.012Z,0.98
2022-09-14T08:27:17.434Z,0.60
2022-09-14T08:29:53.646Z,0.60
2022-09-14T08:32:28.895Z,0.77
2022-09-14T08:35:05.524Z,0.70
2022-09-14T08:37:40.766Z,1.05
2022-09-14T08:40:19.846Z,0.80
2022-09-14T08:42:56.255Z,0.70
2022-09-14T08:45:31.226Z,0.70
2022-09-14T08:48:07.913Z,0.60
2022-09-14T08:50:46.434Z,0.52
2022-09-14T08:53:21.449Z,0.60
2022-09-14T08:56:03.286Z,0.60
2022-09-14T08:58:51.487Z,0.70
2022-09-14T09:01:35.248Z,0.70
2022-09-14T09:04:27.768Z,0.50
2022-09-14T09:07:09.999Z,0.70
2022-09-14T09:10:03.977Z,0.70
2022-09-14T09:12:43.223Z,0.70
2022-09-14T09:15:35.342Z,0.55
2022-09-14T09:18:13.102Z,0.70
2022-09-14T09:20:50.465Z,0.60
2022-09-14T09:23:27.165Z,0.60
2022-09-14T09:26:06.053Z,0.60
2022-09-14T09:28:47.898Z,0.60
2022-09-14T09:31:27.018Z,0.60
2022-09-14T09:34:26.799Z,0.60
2022-09-14T09:37:19.334Z,0.60
2022-09-14T09:39:57.114Z,0.60
2022-09-14T09:42:36.060Z,0.65
2022-09-14T09:48:20.537Z,1.10
2022-09-14T09:51:02.226Z,0.80
2022-09-14T09:53:41.115Z,0.95
2022-09-14T09:56:24.290Z,0.68
2022-09-14T09:58:59.538Z,0.70
2022-09-14T10:01:36.173Z,0.80
2022-09-14T10:04:20.529Z,0.63
2022-09-14T10:07:00.128Z,0.70
2022-09-14T10:09:36.468Z,0.50
2022-09-14T10:12:21.342Z,0.77
2022-09-14T10:15:22.401Z,0.60
2022-09-14T10:18:14.481Z,0.80
2022-09-14T10:21:09.773Z,0.82
2022-09-14T10:23:48.865Z,1.00
2022-09-14T10:26:37.960Z,0.70
2022-09-14T10:29:40.834Z,0.80
2022-09-14T10:32:27.378Z,0.70
2022-09-14T10:35:03.151Z,1.02
2022-09-14T10:37:45.942Z,0.90
2022-09-14T10:40:24.631Z,0.70
2022-09-14T10:43:13.532Z,0.77
2022-09-14T10:45:54.831Z,0.90
2022-09-14T10:48:50.833Z,0.82
2022-09-14T10:51:39.188Z,0.70
2022-09-14T10:57:42.698Z,0.70
2022-09-14T11:00:21.956Z,0.80
2022-09-14T11:03:06.196Z,0.80
2022-09-14T11:05:44.110Z,1.13
2022-09-14T11:08:32.350Z,0.90
2022-09-14T11:11:30.969Z,0.68
2022-09-14T11:14:51.950Z,0.80
2022-09-14T11:17:56.246Z,0.60
2022-09-14T11:20:43.192Z,1.02
2022-09-14T11:23:42.344Z,0.63
2022-09-14T11:26:19.768Z,0.70
2022-09-14T11:28:58.714Z,0.85
2022-09-14T11:32:10.157Z,0.70
2022-09-14T11:34:50.226Z,0.70
2022-09-14T11:37:31.460Z,0.50
2022-09-14T11:40:13.769Z,0.85
2022-09-14T11:42:56.303Z,0.60
2022-09-14T11:45:38.814Z,0.80
2022-09-14T11:48:41.974Z,0.70
2022-09-14T11:51:19.806Z,1.00
2022-09-14T11:53:57.056Z,0.80
2022-09-14T11:56:35.196Z,1.08
2022-09-14T11:59:11.929Z,0.60
2022-09-14T12:01:47.347Z,1.10
2022-09-14T12:04:23.130Z,0.80
2022-09-14T12:07:02.233Z,1.00
2022-09-14T12:09:49.606Z,0.70
2022-09-14T12:12:38.855Z,0.80
2022-09-14T12:15:25.863Z,0.80
2022-09-14T12:18:29.278Z,0.70
2022-09-14T12:21:09.896Z,0.88
2022-09-14T12:23:53.429Z,0.75
2022-09-14T12:26:39.345Z,0.70
2022-09-14T12:29:37.674Z,1.02
2022-09-14T12:32:30.880Z,0.75
2022-09-14T12:35:55.912Z,1.00
2022-09-14T12:39:24.276Z,1.15
2022-09-14T12:42:30.286Z,0.80
2022-09-14T12:45:45.732Z,0.70
2022-09-14T12:49:01.165Z,0.60
2022-09-14T12:51:51.898Z,0.85
2022-09-14T12:54:51.328Z,0.80
2022-09-14T13:01:01.635Z,0.80
2022-09-14T13:03:54.591Z,0.80
2022-09-14T13:06:33.949Z,0.60
2022-09-14T13:09:09.846Z,1.30
2022-09-14T13:11:50.999Z,0.90
2022-09-14T13:14:29.491Z,0.80
2022-09-14T13:17:30.609Z,0.85
2022-09-14T13:20:26.345Z,0.70
2022-09-14T13:23:01.959Z,0.80
2022-09-14T13:28:38.195Z,0.77
2022-09-14T13:31:18.654Z,0.98
2022-09-14T13:33:57.757Z,0.82
2022-09-14T13:36:37.880Z,0.80
2022-09-14T13:39:27.437Z,0.77
2022-09-14T13:42:09.074Z,0.63
2022-09-14T13:44:48.389Z,1.00
2022-09-14T13:47:26.477Z,1.15
2022-09-14T13:50:03.956Z,1.08
2022-09-14T13:53:02.599Z,1.00
2022-09-14T13:55:55.143Z,1.15
2022-09-14T13:58:35.037Z,1.25
2022-09-14T14:01:10.978Z,1.20
2022-09-14T14:04:04.627Z,1.33
2022-09-14T14:06:43.355Z,1.10
2022-09-14T14:09:18.537Z,1.23
2022-09-14T14:11:58.906Z,1.35
2022-09-14T14:17:45.085Z,1.20
2022-09-14T14:20:37.638Z,1.35
2022-09-14T14:23:29.978Z,1.20
2022-09-14T14:26:14.268Z,1.45
2022-09-14T14:28:49.727Z,1.20
2022-09-14T14:31:36.602Z,1.17
2022-09-14T14:34:22.630Z,1.25
2022-09-14T14:36:59.314Z,1.20
2022-09-14T14:39:36.495Z,1.10
2022-09-14T14:42:14.267Z,1.00
2022-09-14T14:45:08.012Z,1.10
2022-09-14T14:47:47.337Z,1.40
2022-09-14T14:50:24.247Z,1.00
2022-09-14T14:53:00.262Z,1.23
2022-09-14T14:55:39.312Z,1.00
2022-09-14T14:58:19.822Z,1.00
2022-09-14T15:00:56.286Z,1.38
2022-09-14T15:03:31.812Z,1.02
2022-09-14T15:06:18.528Z,1.55
2022-09-14T15:08:57.674Z,1.08
2022-09-14T15:11:37.769Z,1.20
2022-09-14T15:14:16.295Z,1.10
2022-09-14T15:16:52.391Z,1.30
2022-09-14T15:19:27.920Z,1.13
2022-09-14T15:22:04.015Z,1.17
2022-09-14T15:24:39.602Z,1.20
2022-09-14T15:27:17.188Z,1.15
2022-09-14T15:29:52.700Z,1.10
2022-09-14T15:32:28.282Z,1.35
2022-09-14T15:35:04.446Z,1.27
2022-09-14T15:37:39.901Z,1.20
2022-09-14T15:40:15.971Z,1.30
2022-09-14T15:42:53.316Z,1.00
2022-09-14T15:45:29.200Z,1.20
2022-09-14T15:48:05.349Z,1.30
2022-09-14T15:50:45.020Z,0.90
2022-09-14T15:53:22.358Z,1.00
2022-09-14T15:55:57.696Z,1.00
2022-09-14T15:58:35.944Z,0.93
2022-09-14T16:01:13.726Z,1.10
2022-09-14T16:03:49.467Z,1.10
2022-09-14T16:06:24.903Z,1.10
2022-09-14T16:09:00.394Z,1.40
2022-09-14T16:11:35.642Z,1.20
2022-09-14T16:14:14.709Z,1.15
2022-09-14T16:16:50.090Z,1.50
2022-09-14T16:19:25.515Z,1.00
2022-09-14T16:22:00.873Z,0.93
2022-09-14T16:24:36.641Z,1.05
2022-09-14T16:27:12.573Z,0.98
2022-09-14T16:29:49.873Z,1.17
2022-09-14T16:32:25.633Z,1.13
2022-09-14T16:35:02.786Z,1.27
2022-09-14T16:37:41.764Z,1.55
2022-09-14T16:40:17.867Z,1.25
2022-09-14T16:42:53.068Z,1.45
2022-09-14T16:45:30.692Z,1.17
2022-09-14T16:48:06.288Z,1.25
2022-09-14T16:50:41.635Z,1.27
2022-09-14T16:53:17.734Z,1.30
2022-09-14T16:55:53.372Z,1.35
2022-09-14T16:58:28.829Z,1.20
2022-09-14T17:01:10.887Z,1.20
2022-09-14T17:03:47.287Z,1.10
2022-09-14T17:06:24.393Z,1.40
2022-09-14T17:09:01.168Z,1.40
2022-09-14T17:11:38.236Z,1.30
2022-09-14T17:14:14.332Z,1.50
2022-09-14T17:16:52.483Z,1.38
2022-09-14T17:19:28.565Z,1.48
2022-09-14T17:22:21.953Z,1.38
2022-09-14T17:24:58.154Z,1.42
2022-09-14T17:27:33.535Z,1.60
2022-09-14T17:30:09.113Z,1.20
2022-09-14T17:32:46.742Z,1.30
2022-09-14T17:35:22.213Z,1.52
2022-09-14T17:37:57.872Z,1.25
2022-09-14T17:40:35.677Z,1.30
2022-09-14T17:43:11.013Z,1.30
2022-09-14T17:45:55.566Z,1.30
2022-09-14T17:48:36.058Z,1.10
2022-09-14T17:51:12.457Z,1.08
2022-09-14T17:53:49.554Z,1.20
2022-09-14T17:56:25.923Z,1.30
2022-09-14T17:59:06.868Z,1.00
2022-09-14T18:01:42.335Z,1.35
2022-09-14T18:04:19.879Z,1.10
2022-09-14T18:06:55.402Z,1.70
2022-09-14T18:09:30.980Z,1.30
2022-09-14T18:12:06.431Z,1.05
2022-09-14T18:14:42.289Z,1.20
2022-09-14T18:17:17.870Z,1.20
2022-09-14T18:20:00.001Z,1.30
2022-09-14T18:22:35.398Z,1.42
2022-09-14T18:25:12.170Z,1.25
2022-09-14T18:27:47.400Z,1.13
2022-09-14T18:30:22.864Z,1.50
2022-09-14T18:32:58.160Z,1.30
2022-09-14T18:35:36.092Z,1.50
2022-09-14T18:38:11.909Z,1.10
2022-09-14T18:40:50.833Z,1.20
2022-09-14T18:43:26.023Z,1.40
2022-09-14T18:46:01.266Z,1.08
2022-09-14T18:48:36.469Z,1.30
2022-09-14T18:51:14.258Z,1.30
2022-09-14T18:53:49.688Z,1.10
2022-09-14T18:56:25.935Z,1.20
2022-09-14T18:59:02.427Z,1.30
2022-09-14T19:01:39.447Z,1.35
2022-09-14T19:04:17.212Z,1.25
2022-09-14T19:06:55.012Z,1.30
2022-09-14T19:09:30.595Z,1.25
2022-09-14T19:12:05.938Z,1.48
2022-09-14T19:14:41.555Z,1.15
2022-09-14T19:17:16.748Z,1.50
2022-09-14T19:19:52.579Z,1.20
2022-09-14T19:22:29.960Z,1.40
2022-09-14T19:25:05.902Z,1.13
2022-09-14T19:27:41.759Z,1.20
2022-09-14T19:30:18.104Z,1.75
2022-09-14T19:32:53.628Z,1.40
2022-09-14T19:35:31.949Z,1.40
2022-09-14T19:38:10.117Z,1.35
2022-09-14T19:40:54.880Z,1.30
2022-09-14T19:43:31.228Z,1.40
2022-09-14T19:46:08.476Z,1.58
2022-09-14T19:48:44.513Z,1.40
2022-09-14T19:51:21.414Z,1.50
2022-09-14T19:54:00.981Z,1.38
2022-09-14T19:56:37.239Z,1.50
2022-09-14T19:59:13.088Z,1.25
2022-09-14T20:01:49.364Z,1.50
2022-09-14T20:04:25.685Z,1.50
2022-09-14T20:07:00.870Z,1.85
2022-09-14T20:09:41.027Z,1.83
2022-09-14T20:12:17.182Z,2.10
2022-09-14T20:14:53.437Z,2.03
2022-09-14T20:17:28.781Z,2.58
2022-09-14T20:20:04.511Z,2.10
2022-09-14T20:22:40.123Z,2.28
2022-09-14T20:25:18.596Z,2.00
2022-09-14T20:27:53.885Z,2.00
2022-09-14T20:30:29.169Z,1.83
2022-09-14T20:33:04.804Z,2.17
2022-09-14T20:35:40.490Z,2.35
2022-09-14T20:38:15.775Z,2.70
2022-09-14T20:40:53.471Z,2.75
2022-09-14T20:43:29.162Z,2.85
2022-09-14T20:46:08.430Z,2.40
2022-09-14T20:48:44.803Z,2.38
2022-09-14T20:51:25.298Z,2.70
2022-09-14T20:54:03.424Z,2.70
2022-09-14T20:56:41.638Z,2.25
2022-09-14T20:59:18.211Z,1.90
2022-09-14T21:01:54.729Z,1.92
2022-09-14T21:04:31.510Z,2.22
2022-09-14T21:07:07.685Z,1.63
2022-09-14T21:09:42.861Z,1.65
2022-09-14T21:12:22.569Z,1.40
2022-09-14T21:14:57.977Z,1.58
2022-09-14T21:17:33.360Z,1.55
2022-09-14T21:20:09.255Z,1.88
2022-09-14T21:22:48.645Z,1.60
2022-09-14T21:25:25.039Z,1.42
2022-09-14T21:28:02.592Z,1.90
2022-09-14T21:30:43.715Z,2.00
2022-09-14T21:33:26.799Z,1.90
2022-09-14T21:36:09.865Z,1.80
2022-09-14T21:38:52.234Z,1.65
2022-09-14T21:41:29.174Z,1.98
2022-09-14T21:44:07.421Z,1.50
2022-09-14T21:46:43.721Z,1.70
2022-09-14T21:49:23.079Z,1.50
2022-09-14T21:51:59.603Z,1.70
2022-09-14T21:54:35.172Z,1.77
2022-09-14T21:57:10.692Z,1.73
2022-09-14T21:59:47.908Z,1.65
2022-09-14T22:02:23.609Z,1.60
2022-09-14T22:05:00.205Z,1.50
2022-09-14T22:07:37.231Z,1.80
2022-09-14T22:10:14.085Z,1.80
2022-09-14T22:12:49.511Z,1.65
2022-09-14T22:15:33.556Z,1.70
2022-09-14T22:18:09.118Z,1.90
2022-09-14T22:20:44.353Z,1.70
2022-09-14T22:23:19.477Z,1.70
2022-09-14T22:26:14.555Z,1.65
2022-09-14T22:28:50.849Z,2.00
2022-09-14T22:31:29.766Z,2.03
2022-09-14T22:34:05.517Z,1.80
2022-09-14T22:36:41.902Z,2.00
2022-09-14T22:39:17.000Z,1.90
2022-09-14T22:41:52.600Z,2.15
2022-09-14T22:44:27.839Z,2.17
2022-09-14T22:47:04.965Z,2.20
2022-09-14T22:49:40.648Z,2.00
2022-09-14T22:52:16.104Z,2.10
2022-09-14T22:54:52.325Z,1.90
2022-09-14T22:57:31.146Z,1.90
2022-09-14T23:00:06.560Z,2.30
2022-09-14T23:02:44.831Z,1.70
2022-09-14T23:05:21.369Z,2.03
2022-09-14T23:07:56.849Z,1.95
2022-09-14T23:10:36.876Z,2.10
2022-09-14T23:13:14.067Z,1.80
2022-09-14T23:15:48.372Z,1.88
2022-09-14T23:18:24.872Z,1.85
2022-09-14T23:20:59.400Z,1.70
2022-09-14T23:23:33.743Z,2.00
2022-09-14T23:26:09.717Z,1.73
2022-09-14T23:28:44.238Z,1.83
2022-09-14T23:31:18.853Z,1.55
2022-09-14T23:33:59.981Z,2.13
2022-09-14T23:36:42.213Z,1.70
2022-09-14T23:39:17.864Z,1.45
2022-09-14T23:41:53.710Z,1.58
2022-09-14T23:44:29.620Z,1.55
2022-09-14T23:47:07.952Z,1.70
2022-09-14T23:49:44.754Z,1.70
2022-09-14T23:52:20.058Z,1.65
2022-09-14T23:54:55.578Z,1.60
2022-09-14T23:57:31.507Z,1.60
